createdAt,value
2023-03-29T00:00:25.807Z,45.02
2023-03-29T00:05:27.394Z,45.01
2023-03-29T00:10:28.954Z,43.40
2023-03-29T00:15:30.524Z,44.42
2023-03-29T00:20:32.097Z,42.86
2023-03-29T00:25:33.678Z,42.63
2023-03-29T00:30:35.300Z,46.55
2023-03-29T00:35:39.423Z,46.12
2023-03-29T00:40:43.933Z,43.38
2023-03-29T00:45:45.612Z,42.88
2023-03-29T00:50:54.746Z,44.20
2023-03-29T00:56:02.495Z,44.61
2023-03-29T01:01:10.983Z,47.36
2023-03-29T01:06:16.135Z,48.05
2023-03-29T01:11:25.051Z,46.55
2023-03-29T01:16:30.322Z,45.87
2023-03-29T01:21:39.885Z,48.69
2023-03-29T01:26:57.503Z,48.69
2023-03-29T01:32:13.199Z,45.61
2023-03-29T01:37:38.930Z,43.15
2023-03-29T01:42:57.969Z,43.60
2023-03-29T01:48:02.811Z,42.21
2023-03-29T01:53:27.311Z,41.93
2023-03-29T01:58:34.032Z,42.63
2023-03-29T02:03:42.577Z,44.09
2023-03-29T02:08:45.280Z,42.47
2023-03-29T02:13:46.953Z,45.05
2023-03-29T02:18:50.424Z,46.79
2023-03-29T02:23:54.827Z,47.05
2023-03-29T02:28:56.585Z,48.13
2023-03-29T02:34:11.173Z,48.01
2023-03-29T02:39:15.520Z,47.31
2023-03-29T02:44:21.679Z,49.37
2023-03-29T02:49:23.887Z,49.69
2023-03-29T02:54:30.045Z,48.94
2023-03-29T02:59:33.389Z,49.11
2023-03-29T03:04:35.778Z,49.67
2023-03-29T03:09:37.615Z,51.47
2023-03-29T03:14:39.520Z,52.35
2023-03-29T03:19:41.889Z,53.87
2023-03-29T03:24:43.450Z,53.03
2023-03-29T03:29:45.036Z,53.67
2023-03-29T03:34:46.639Z,53.63
2023-03-29T03:39:48.299Z,54.57
2023-03-29T03:44:50.433Z,50.78
2023-03-29T03:49:52.141Z,51.95
2023-03-29T03:54:53.687Z,52.91
2023-03-29T03:59:56.387Z,51.93
2023-03-29T04:04:57.972Z,50.92
2023-03-29T04:09:59.548Z,48.22
2023-03-29T04:15:01.312Z,47.16
2023-03-29T04:20:10.123Z,44.78
2023-03-29T04:25:11.860Z,43.86
2023-03-29T04:30:13.841Z,42.12
2023-03-29T04:35:15.465Z,42.54
2023-03-29T04:40:19.452Z,43.50
2023-03-29T04:45:21.341Z,43.66
2023-03-29T04:50:23.018Z,42.48
2023-03-29T04:55:24.583Z,43.06
2023-03-29T05:00:27.637Z,44.15
2023-03-29T05:05:29.222Z,43.16
2023-03-29T05:10:31.004Z,43.29
2023-03-29T05:15:32.770Z,44.78
2023-03-29T05:20:34.383Z,43.93
2023-03-29T05:25:36.119Z,42.61
2023-03-29T05:30:38.096Z,42.89
2023-03-29T05:35:39.949Z,45.46
2023-03-29T05:40:41.641Z,44.94
2023-03-29T05:45:43.412Z,46.01
2023-03-29T05:50:49.469Z,45.86
2023-03-29T05:55:51.790Z,46.24
2023-03-29T06:00:53.509Z,45.90
2023-03-29T06:05:58.656Z,46.53
2023-03-29T06:11:06.790Z,47.25
2023-03-29T06:16:10.849Z,46.65
2023-03-29T06:21:12.735Z,46.43
2023-03-29T06:26:15.770Z,46.35
2023-03-29T06:31:17.408Z,45.55
2023-03-29T06:36:20.246Z,46.02
2023-03-29T06:41:21.963Z,45.70
2023-03-29T06:46:23.581Z,47.58
2023-03-29T06:51:25.293Z,46.64
2023-03-29T06:56:26.908Z,46.07
2023-03-29T07:01:28.688Z,45.38
2023-03-29T07:06:31.103Z,43.99
2023-03-29T07:11:36.395Z,44.39
2023-03-29T07:16:38.051Z,46.04
2023-03-29T07:21:40.008Z,44.22
2023-03-29T07:26:52.292Z,45.35
2023-03-29T07:32:02.432Z,45.47
2023-03-29T07:37:04.000Z,44.61
2023-03-29T07:42:06.642Z,41.76
2023-03-29T07:47:08.209Z,45.26
2023-03-29T07:52:09.843Z,48.79
2023-03-29T07:57:11.652Z,46.66
2023-03-29T08:02:13.407Z,46.16
2023-03-29T08:07:18.820Z,45.02
2023-03-29T08:17:22.479Z,42.74
2023-03-29T08:22:24.195Z,42.73
2023-03-29T08:27:26.408Z,42.23
2023-03-29T08:32:28.017Z,44.45
2023-03-29T08:37:30.298Z,44.24
2023-03-29T08:42:53.108Z,44.33
2023-03-29T08:47:58.692Z,43.22
2023-03-29T08:53:05.618Z,43.06
2023-03-29T08:58:14.238Z,42.15
2023-03-29T09:03:24.167Z,42.71
2023-03-29T09:08:26.745Z,41.81
2023-03-29T09:13:49.542Z,41.53
2023-03-29T09:18:56.812Z,40.96
2023-03-29T09:24:18.922Z,39.77
2023-03-29T09:29:35.551Z,38.29
2023-03-29T09:34:44.292Z,39.31
2023-03-29T09:39:46.064Z,39.13
2023-03-29T09:44:57.427Z,39.15
2023-03-29T09:50:23.090Z,38.68
2023-03-29T09:55:34.105Z,40.15
2023-03-29T10:00:36.659Z,38.41
2023-03-29T10:05:38.506Z,38.67
2023-03-29T10:10:40.115Z,38.79
2023-03-29T10:15:41.989Z,38.79
2023-03-29T10:20:43.577Z,38.47
2023-03-29T10:25:45.551Z,38.36
2023-03-29T10:30:54.432Z,40.04
2023-03-29T10:35:57.735Z,39.20
2023-03-29T10:41:12.927Z,38.20
2023-03-29T10:46:33.654Z,39.55
2023-03-29T10:51:35.512Z,39.71
2023-03-29T10:56:43.241Z,38.36
2023-03-29T11:06:47.414Z,42.28
2023-03-29T11:12:15.734Z,40.77
2023-03-29T11:17:24.982Z,40.12
2023-03-29T11:22:47.546Z,40.79
2023-03-29T11:27:53.540Z,41.13
2023-03-29T11:33:56.862Z,40.09
2023-03-29T11:39:12.136Z,39.64
2023-03-29T11:44:20.293Z,40.00
2023-03-29T11:49:43.058Z,39.30
2023-03-29T11:55:03.576Z,40.45
2023-03-29T12:00:30.498Z,40.57
2023-03-29T12:05:38.293Z,40.51
2023-03-29T12:11:24.395Z,40.50
2023-03-29T12:16:37.961Z,41.49
2023-03-29T12:21:41.747Z,40.77
2023-03-29T12:26:57.877Z,41.84
2023-03-29T12:32:37.234Z,42.93
2023-03-29T12:38:16.373Z,43.41
2023-03-29T12:43:39.093Z,43.91
2023-03-29T12:48:42.472Z,42.43
2023-03-29T12:53:47.186Z,46.60
2023-03-29T12:59:26.160Z,47.12
2023-03-29T13:04:51.297Z,49.57
2023-03-29T13:10:03.696Z,50.61
2023-03-29T13:15:23.699Z,50.16
2023-03-29T13:20:52.239Z,49.60
2023-03-29T13:25:53.771Z,48.82
2023-03-29T13:30:59.916Z,50.18
2023-03-29T13:36:33.070Z,50.17
2023-03-29T13:41:41.076Z,49.11
2023-03-29T13:46:43.843Z,48.00
2023-03-29T13:52:13.268Z,49.26
2023-03-29T13:57:22.128Z,45.73
2023-03-29T14:02:32.832Z,45.38
2023-03-29T14:07:39.150Z,44.83
2023-03-29T14:12:44.382Z,45.87
2023-03-29T14:17:47.010Z,41.96
2023-03-29T14:22:49.725Z,42.71
2023-03-29T14:27:51.326Z,43.50
2023-03-29T14:32:53.503Z,42.26
2023-03-29T14:37:55.312Z,41.75
2023-03-29T14:42:58.129Z,43.55
2023-03-29T14:48:00.527Z,42.98
2023-03-29T14:53:03.204Z,42.16
2023-03-29T14:58:19.969Z,41.99
2023-03-29T15:03:27.335Z,42.17
2023-03-29T15:08:34.572Z,41.57
2023-03-29T15:13:42.020Z,40.85
2023-03-29T15:18:46.133Z,38.74
2023-03-29T15:23:52.613Z,39.36
2023-03-29T15:29:03.033Z,37.77
2023-03-29T15:34:09.092Z,39.07
2023-03-29T15:39:16.285Z,39.21
2023-03-29T15:44:22.806Z,39.21
2023-03-29T15:49:25.134Z,38.41
2023-03-29T15:54:29.100Z,38.63
2023-03-29T15:59:31.510Z,39.63
2023-03-29T17:00:00.435Z,39.52
2023-03-29T18:10:32.402Z,38.10
2023-03-29T18:15:33.968Z,38.70
2023-03-29T18:20:35.575Z,38.39
2023-03-29T18:25:38.693Z,39.24
2023-03-29T18:30:40.427Z,38.73
2023-03-29T18:35:48.577Z,38.96
2023-03-29T18:40:50.582Z,38.37
2023-03-29T18:45:52.294Z,40.06
2023-03-29T18:50:56.544Z,37.37
2023-03-29T18:55:58.082Z,39.21
2023-03-29T19:01:04.567Z,43.75
2023-03-29T19:06:07.209Z,42.62
2023-03-29T19:11:11.355Z,41.25
2023-03-29T19:16:13.088Z,38.98
2023-03-29T19:21:14.957Z,40.40
2023-03-29T19:26:16.644Z,40.06
2023-03-29T19:31:18.342Z,38.76
2023-03-29T19:36:20.148Z,40.38
2023-03-29T19:41:22.125Z,41.14
2023-03-29T19:46:23.869Z,40.83
2023-03-29T19:51:27.435Z,39.49
2023-03-29T19:56:29.010Z,40.36
2023-03-29T20:01:32.252Z,40.80
2023-03-29T20:06:34.242Z,40.34
2023-03-29T20:11:36.076Z,40.13
2023-03-29T20:16:37.840Z,39.52
2023-03-29T20:21:39.712Z,39.69
2023-03-29T20:26:41.364Z,40.34
2023-03-29T20:31:43.502Z,40.24
2023-03-29T20:36:46.667Z,39.51
2023-03-29T20:41:48.763Z,39.60
2023-03-29T20:47:03.408Z,38.70
2023-03-29T20:52:07.939Z,38.83
2023-03-29T20:57:14.168Z,40.20
2023-03-29T21:02:21.677Z,38.04
2023-03-29T21:07:23.330Z,38.17
2023-03-29T21:12:25.601Z,37.72
2023-03-29T21:17:27.731Z,37.24
2023-03-29T21:22:29.417Z,38.53
2023-03-29T21:27:31.129Z,38.29
2023-03-29T21:32:32.876Z,37.87
2023-03-29T21:37:34.553Z,37.68
2023-03-29T21:42:36.514Z,37.95
2023-03-29T21:47:38.465Z,38.56
2023-03-29T21:52:40.426Z,37.96
2023-03-29T21:57:42.134Z,38.64
2023-03-29T22:02:45.891Z,39.03
2023-03-29T22:07:50.445Z,37.47
2023-03-29T22:12:52.613Z,37.99
2023-03-29T22:17:57.738Z,38.96
2023-03-29T22:23:00.880Z,39.18
2023-03-29T22:28:02.458Z,38.86
2023-03-29T22:33:04.154Z,38.84
2023-03-29T22:38:05.957Z,39.10
2023-03-29T22:43:07.592Z,38.64
2023-03-29T22:48:09.304Z,39.62
2023-03-29T22:53:11.657Z,40.06
2023-03-29T22:58:13.304Z,39.66
2023-03-29T23:03:14.922Z,38.76
2023-03-29T23:08:16.564Z,38.84
2023-03-29T23:13:26.414Z,39.66
2023-03-29T23:18:30.294Z,38.13
2023-03-29T23:23:32.497Z,39.09
2023-03-29T23:28:34.688Z,38.53
2023-03-29T23:33:38.573Z,38.58
2023-03-29T23:38:42.305Z,38.30
2023-03-29T23:43:47.138Z,39.12
2023-03-29T23:48:50.202Z,40.10
2023-03-29T23:58:53.402Z,39.28
